Time;durP1;ratioP1;P1;durP2;ratioP2;P2;SDS_P1;SDS_P2;PMS_P1;PMS_P2;Temp;Humidity;BMP_temperature;BMP_pressure;BME280_temperature;BME280_humidity;BME280_pressure;Samples;Min_cycle;Max_cycle;Signal;HPM_P1;HPM_P2
2023/09/06 00:01:33;;;;;;;;;;;;;;;;;;2218768;58;2009;-21
2023/09/06 00:04:04;;;;;;;;;;;;;;;;;;2212778;66;2329;-21
2023/09/06 00:06:34;;;;;;;;;;;;;;;;;;2212495;66;2510;-21
2023/09/06 00:09:04;;;;;;;;;;;;;;;;;;2216201;66;2412;-21
2023/09/06 00:11:35;;;;;;;;;;;;;;;;;;2214893;58;1831;-21
2023/09/06 00:14:05;;;;;;;;;;;;;;;;;;2216015;59;1980;-21
2023/09/06 00:16:35;;;;;;;;;;;;;;;;;;2218986;66;2013;-21
2023/09/06 00:19:05;;;;;;;;;;;;;;;;;;2217561;58;2374;-21
2023/09/06 00:21:40;;;;;;;;;;;;;;;;;;2218878;66;1882;-21
2023/09/06 00:24:12;;;;;;;;;;;;;;;;;;2216964;66;2146;-22
2023/09/06 00:26:43;;;;;;;;;;;;;;;;;;2218076;58;1913;-22
2023/09/06 00:29:14;;;;;;;;;;;;;;;;;;2212759;58;2476;-21
2023/09/06 00:31:44;;;;;;;;;;;;;;;;;;2217426;58;1838;-21
2023/09/06 00:34:15;;;;;;;;;;;;;;;;;;2216480;58;2389;-21
2023/09/06 00:36:45;;;;;;;;;;;;;;;;;;2217081;66;1906;-22
2023/09/06 00:39:15;;;;;;;;;;;;;;;;;;2216335;58;2075;-21
2023/09/06 00:41:45;;;;;;;;;;;;;;;;;;2218434;66;1814;-21
2023/09/06 00:44:18;;;;;;;;;;;;;;;;;;2216596;59;1811;-21
2023/09/06 00:46:49;;;;;;;;;;;;;;;;;;2213578;58;1874;-21
2023/09/06 00:49:19;;;;;;;;;;;;;;;;;;2218088;58;2843;-21
2023/09/06 00:51:49;;;;;;;;;;;;;;;;;;2214867;58;2411;-22
2023/09/06 00:54:19;;;;;;;;;;;;;;;;;;2217331;58;2240;-22
2023/09/06 00:56:50;;;;;;;;;;;;;;;;;;2218519;58;2367;-22
2023/09/06 00:59:21;;;;;;;;;;;;;;;;;;2216729;58;3186;-21
2023/09/06 01:01:52;;;;;;;;;;;;;;;;;;2218628;58;1846;-22
2023/09/06 01:04:24;;;;;;;;;;;;;;;;;;2216742;59;2126;-21
2023/09/06 01:06:58;;;;;;;;;;;;;;;;;;2214025;58;2640;-21
2023/09/06 01:09:29;;;;;;;;;;;;;;;;;;2217655;59;2457;-21
2023/09/06 01:12:00;;;;;;;;;;;;;;;;;;2216087;58;2280;-21
2023/09/06 01:14:30;;;;;;;;;;;;;;;;;;2217606;66;2048;-21
2023/09/06 01:17:00;;;;;;;;;;;;;;;;;;2216601;58;2320;-21
2023/09/06 01:19:32;;;;;;;;;;;;;;;;;;2217775;59;2012;-21
2023/09/06 01:22:21;;;;;;;;;;;;;;;;;;2213442;66;2414;-21
2023/09/06 01:24:52;;;;;;;;;;;;;;;;;;2214364;58;1982;-21
2023/09/06 01:27:22;;;;;;;;;;;;;;;;;;2214127;58;1949;-21
2023/09/06 01:29:53;;;;;;;;;;;;;;;;;;2217761;58;1864;-22
2023/09/06 01:32:24;;;;;;;;;;;;;;;;;;2214193;66;1966;-22
2023/09/06 01:34:54;;;;;;;;;;;;;;;;;;2217150;59;1795;-22
2023/09/06 01:37:24;;;;;;;;;;;;;;;;;;2213394;66;2625;-21
2023/09/06 01:39:54;;;;;;;;;;;;;;;;;;2213887;59;2577;-21
2023/09/06 01:42:25;;;;;;;;;;;;;;;;;;2216435;66;2696;-21
2023/09/06 01:44:55;;;;;;;;;;;;;;;;;;2217099;58;2289;-21
2023/09/06 01:47:26;;;;;;;;;;;;;;;;;;2216984;58;1942;-21
2023/09/06 01:49:57;;;;;;;;;;;;;;;;;;2216830;58;1737;-21
2023/09/06 01:52:27;;;;;;;;;;;;;;;;;;2217339;58;2692;-21
2023/09/06 01:54:57;;;;;;;;;;;;;;;;;;2217261;58;2393;-21
2023/09/06 01:57:28;;;;;;;;;;;;;;;;;;2213255;58;2482;-22
2023/09/06 01:59:58;;;;;;;;;;;;;;;;;;2216697;58;3373;-21
2023/09/06 02:02:28;;;;;;;;;;;;;;;;;;2216777;58;2880;-21
2023/09/06 02:04:58;;;;;;;;;;;;;;;;;;2213104;66;2032;-22
2023/09/06 02:07:29;;;;;;;;;;;;;;;;;;2213737;66;2313;-22
2023/09/06 02:09:59;;;;;;;;;;;;;;;;;;2216614;58;2326;-22
2023/09/06 02:12:29;;;;;;;;;;;;;;;;;;2217398;58;1935;-22
2023/09/06 02:15:00;;;;;;;;;;;;;;;;;;2216357;58;2371;-22
2023/09/06 02:17:30;;;;;;;;;;;;;;;;;;2216816;58;2582;-22
2023/09/06 02:20:12;;;;;;;;;;;;;;;;;;2215911;58;2574;-22
2023/09/06 02:22:52;;;;;;;;;;;;;;;;;;2216734;59;1786;-21
2023/09/06 02:25:29;;;;;;;;;;;;;;;;;;2216373;66;1802;-21
2023/09/06 02:28:04;;;;;;;;;;;;;;;;;;2215983;66;2428;-21
2023/09/06 02:30:37;;;;;;;;;;;;;;;;;;2217722;58;1788;-21
2023/09/06 02:33:09;;;;;;;;;;;;;;;;;;2212891;66;2551;-21
2023/09/06 02:35:40;;;;;;;;;;;;;;;;;;2217919;66;2350;-21
2023/09/06 02:38:11;;;;;;;;;;;;;;;;;;2216134;59;1963;-22
2023/09/06 02:40:41;;;;;;;;;;;;;;;;;;2214034;66;2027;-22
2023/09/06 02:43:13;;;;;;;;;;;;;;;;;;2216365;66;2452;-22
2023/09/06 02:45:49;;;;;;;;;;;;;;;;;;2218370;58;1765;-22
2023/09/06 02:48:21;;;;;;;;;;;;;;;;;;2212906;58;2555;-22
2023/09/06 02:50:52;;;;;;;;;;;;;;;;;;2217312;58;1706;-22
2023/09/06 02:53:22;;;;;;;;;;;;;;;;;;2216995;58;2260;-22
2023/09/06 02:55:53;;;;;;;;;;;;;;;;;;2213426;58;1825;-22
2023/09/06 02:58:23;;;;;;;;;;;;;;;;;;2216685;58;2788;-21
2023/09/06 03:00:57;;;;;;;;;;;;;;;;;;2216766;58;3049;-21
2023/09/06 03:03:28;;;;;;;;;;;;;;;;;;2217336;58;3845;-20
2023/09/06 03:05:58;;;;;;;;;;;;;;;;;;2217749;58;2072;-21
2023/09/06 03:08:29;;;;;;;;;;;;;;;;;;2216544;58;1956;-22
2023/09/06 03:10:59;;;;;;;;;;;;;;;;;;2217150;58;1966;-22
2023/09/06 03:13:29;;;;;;;;;;;;;;;;;;2213570;58;2523;-22
2023/09/06 03:16:00;;;;;;;;;;;;;;;;;;2212835;66;2420;-22
2023/09/06 03:18:30;;;;;;;;;;;;;;;;;;2216945;58;2422;-22
2023/09/06 03:21:04;;;;;;;;;;;;;;;;;;2213460;66;2412;-21
2023/09/06 03:23:35;;;;;;;;;;;;;;;;;;2216945;66;2532;-21
2023/09/06 03:26:06;;;;;;;;;;;;;;;;;;2215474;58;1857;-21
2023/09/06 03:28:40;;;;;;;;;;;;;;;;;;2217910;58;2350;-21
2023/09/06 03:31:12;;;;;;;;;;;;;;;;;;2216363;58;2561;-22
2023/09/06 03:33:43;;;;;;;;;;;;;;;;;;2214626;66;2000;-22
2023/09/06 03:36:14;;;;;;;;;;;;;;;;;;2214828;58;2623;-21
2023/09/06 03:38:46;;;;;;;;;;;;;;;;;;2218355;59;1987;-21
2023/09/06 03:41:17;;;;;;;;;;;;;;;;;;2215813;58;1856;-21
2023/09/06 03:43:47;;;;;;;;;;;;;;;;;;2218639;58;1841;-21
2023/09/06 03:46:20;;;;;;;;;;;;;;;;;;2217371;53;4768;-22
2023/09/06 03:48:51;;;;;;;;;;;;;;;;;;2214830;66;1971;-22
2023/09/06 03:51:22;;;;;;;;;;;;;;;;;;2213689;58;1976;-22
2023/09/06 03:53:52;;;;;;;;;;;;;;;;;;2215362;58;1807;-21
2023/09/06 03:56:24;;;;;;;;;;;;;;;;;;2217065;58;2123;-21
2023/09/06 03:58:55;;;;;;;;;;;;;;;;;;2213447;58;1967;-22
2023/09/06 04:01:29;;;;;;;;;;;;;;;;;;2213377;58;3607;-22
2023/09/06 04:04:00;;;;;;;;;;;;;;;;;;2217437;59;3718;-22
2023/09/06 04:06:31;;;;;;;;;;;;;;;;;;2217135;58;1911;-22
2023/09/06 04:09:02;;;;;;;;;;;;;;;;;;2213906;66;1737;-22
2023/09/06 04:11:32;;;;;;;;;;;;;;;;;;2216835;58;1805;-22
2023/09/06 04:14:03;;;;;;;;;;;;;;;;;;2216607;66;1964;-22
2023/09/06 04:16:35;;;;;;;;;;;;;;;;;;2218284;58;1924;-22
2023/09/06 04:19:05;;;;;;;;;;;;;;;;;;2218714;58;1935;-22
2023/09/06 04:21:37;;;;;;;;;;;;;;;;;;2214727;58;2327;-21
2023/09/06 04:24:08;;;;;;;;;;;;;;;;;;2214017;66;1828;-20
2023/09/06 04:26:38;;;;;;;;;;;;;;;;;;2215801;58;1746;-20
2023/09/06 04:29:08;;;;;;;;;;;;;;;;;;2216738;58;1810;-21
2023/09/06 04:31:41;;;;;;;;;;;;;;;;;;2219306;58;1851;-21
2023/09/06 04:34:14;;;;;;;;;;;;;;;;;;2214890;59;2367;-21
2023/09/06 04:36:44;;;;;;;;;;;;;;;;;;2212532;66;1719;-22
2023/09/06 04:39:17;;;;;;;;;;;;;;;;;;2217586;58;1931;-22
2023/09/06 04:41:47;;;;;;;;;;;;;;;;;;2213994;58;2011;-21
2023/09/06 04:44:17;;;;;;;;;;;;;;;;;;2217368;58;1749;-22
2023/09/06 04:46:48;;;;;;;;;;;;;;;;;;2215185;66;1720;-21
2023/09/06 04:49:18;;;;;;;;;;;;;;;;;;2216056;58;1884;-21
2023/09/06 04:51:48;;;;;;;;;;;;;;;;;;2217289;58;2018;-21
2023/09/06 04:54:18;;;;;;;;;;;;;;;;;;2211738;58;2589;-21
2023/09/06 04:56:49;;;;;;;;;;;;;;;;;;2215296;58;1684;-20
2023/09/06 04:59:19;;;;;;;;;;;;;;;;;;2216489;59;2360;-21
2023/09/06 05:01:49;;;;;;;;;;;;;;;;;;2218158;58;2915;-21
2023/09/06 05:04:19;;;;;;;;;;;;;;;;;;2216486;59;3423;-21
2023/09/06 05:06:50;;;;;;;;;;;;;;;;;;2217785;66;1843;-21
2023/09/06 05:09:21;;;;;;;;;;;;;;;;;;2216740;59;1839;-20
2023/09/06 05:11:52;;;;;;;;;;;;;;;;;;2217463;58;1741;-21
2023/09/06 05:14:22;;;;;;;;;;;;;;;;;;2216022;66;1785;-21
2023/09/06 05:16:52;;;;;;;;;;;;;;;;;;2216873;66;2058;-20
2023/09/06 05:19:27;;;;;;;;;;;;;;;;;;2217291;58;2146;-20
2023/09/06 05:21:57;;;;;;;;;;;;;;;;;;2214688;59;2004;-20
2023/09/06 05:24:28;;;;;;;;;;;;;;;;;;2217643;58;1821;-21
2023/09/06 05:26:58;;;;;;;;;;;;;;;;;;2217374;58;2429;-20
2023/09/06 05:29:29;;;;;;;;;;;;;;;;;;2216890;58;1924;-21
2023/09/06 05:31:59;;;;;;;;;;;;;;;;;;2217775;66;2032;-20
2023/09/06 05:34:29;;;;;;;;;;;;;;;;;;2216668;66;1762;-21
2023/09/06 05:37:00;;;;;;;;;;;;;;;;;;2217131;58;1930;-22
2023/09/06 05:39:30;;;;;;;;;;;;;;;;;;2217359;58;1991;-21
2023/09/06 05:42:01;;;;;;;;;;;;;;;;;;2213772;58;1885;-21
2023/09/06 05:44:31;;;;;;;;;;;;;;;;;;2217344;58;1806;-21
2023/09/06 05:47:01;;;;;;;;;;;;;;;;;;2213234;59;2126;-21
2023/09/06 05:49:31;;;;;;;;;;;;;;;;;;2217457;58;1957;-21
2023/09/06 05:52:02;;;;;;;;;;;;;;;;;;2217956;58;1756;-21
2023/09/06 05:54:32;;;;;;;;;;;;;;;;;;2217805;66;1966;-22
2023/09/06 05:57:04;;;;;;;;;;;;;;;;;;2216530;58;1763;-22
2023/09/06 05:59:34;;;;;;;;;;;;;;;;;;2217944;58;1941;-21
2023/09/06 06:02:05;;;;;;;;;;;;;;;;;;2217230;58;2886;-21
2023/09/06 06:04:35;;;;;;;;;;;;;;;;;;2216630;59;3176;-21
2023/09/06 06:07:06;;;;;;;;;;;;;;;;;;2213515;59;1786;-21
2023/09/06 06:09:36;;;;;;;;;;;;;;;;;;2218389;59;1751;-21
2023/09/06 06:12:07;;;;;;;;;;;;;;;;;;2214604;58;1932;-21
2023/09/06 06:14:37;;;;;;;;;;;;;;;;;;2217590;66;1783;-21
2023/09/06 06:17:09;;;;;;;;;;;;;;;;;;2212733;58;1887;-21
2023/09/06 06:19:39;;;;;;;;;;;;;;;;;;2217345;58;2004;-21
2023/09/06 06:22:09;;;;;;;;;;;;;;;;;;2217331;66;1996;-22
2023/09/06 06:24:41;;;;;;;;;;;;;;;;;;2218095;58;1864;-21
2023/09/06 06:27:11;;;;;;;;;;;;;;;;;;2218254;58;2198;-21
2023/09/06 06:29:41;;;;;;;;;;;;;;;;;;2217525;58;1979;-21
2023/09/06 06:32:12;;;;;;;;;;;;;;;;;;2217413;58;1942;-21
2023/09/06 06:34:43;;;;;;;;;;;;;;;;;;2214686;59;1849;-21
2023/09/06 06:37:14;;;;;;;;;;;;;;;;;;2216777;58;1972;-21
2023/09/06 06:39:44;;;;;;;;;;;;;;;;;;2217249;59;1937;-22
2023/09/06 06:42:14;;;;;;;;;;;;;;;;;;2213518;58;1876;-21
2023/09/06 06:44:46;;;;;;;;;;;;;;;;;;2217581;58;1854;-22
2023/09/06 06:47:16;;;;;;;;;;;;;;;;;;2216282;58;1994;-22
2023/09/06 06:49:49;;;;;;;;;;;;;;;;;;2211477;59;1870;-22
2023/09/06 06:52:19;;;;;;;;;;;;;;;;;;2213401;58;1851;-21
2023/09/06 06:54:49;;;;;;;;;;;;;;;;;;2217813;59;1916;-21
2023/09/06 06:57:19;;;;;;;;;;;;;;;;;;2213272;58;1730;-23
2023/09/06 06:59:50;;;;;;;;;;;;;;;;;;2217835;58;1995;-22
2023/09/06 07:02:20;;;;;;;;;;;;;;;;;;2210934;66;1963;-21
2023/09/06 07:04:50;;;;;;;;;;;;;;;;;;2210239;66;3113;-21
2023/09/06 07:07:21;;;;;;;;;;;;;;;;;;2216456;66;3715;-21
2023/09/06 07:09:51;;;;;;;;;;;;;;;;;;2211037;58;1868;-22
2023/09/06 07:12:22;;;;;;;;;;;;;;;;;;2215475;58;1899;-21
2023/09/06 07:14:53;;;;;;;;;;;;;;;;;;2211216;59;1895;-22
2023/09/06 07:17:23;;;;;;;;;;;;;;;;;;2210516;58;2499;-21
2023/09/06 07:19:54;;;;;;;;;;;;;;;;;;2216583;66;1936;-22
2023/09/06 07:22:24;;;;;;;;;;;;;;;;;;2217457;59;2139;-22
2023/09/06 07:24:54;;;;;;;;;;;;;;;;;;2217744;66;1816;-22
2023/09/06 07:27:25;;;;;;;;;;;;;;;;;;2213673;59;1997;-22
2023/09/06 07:29:55;;;;;;;;;;;;;;;;;;2217481;58;1937;-22
2023/09/06 07:32:26;;;;;;;;;;;;;;;;;;2213899;58;1780;-22
2023/09/06 07:34:56;;;;;;;;;;;;;;;;;;2212627;66;1841;-22
2023/09/06 07:37:26;;;;;;;;;;;;;;;;;;2210199;66;2039;-22
2023/09/06 07:39:59;;;;;;;;;;;;;;;;;;2216344;66;1937;-23
2023/09/06 07:42:30;;;;;;;;;;;;;;;;;;2216815;59;1790;-23
2023/09/06 07:45:01;;;;;;;;;;;;;;;;;;2216697;58;2140;-23
2023/09/06 07:47:31;;;;;;;;;;;;;;;;;;2213328;59;1867;-23
2023/09/06 07:50:04;;;;;;;;;;;;;;;;;;2213962;58;1945;-22
2023/09/06 07:52:36;;;;;;;;;;;;;;;;;;2211437;58;1964;-22
2023/09/06 07:55:07;;;;;;;;;;;;;;;;;;2210091;66;1967;-22
2023/09/06 07:57:38;;;;;;;;;;;;;;;;;;2211431;59;1889;-22
2023/09/06 08:00:08;;;;;;;;;;;;;;;;;;2211448;58;2340;-22
2023/09/06 08:02:39;;;;;;;;;;;;;;;;;;2211843;59;1925;-22
2023/09/06 08:05:09;;;;;;;;;;;;;;;;;;2210084;59;3269;-22
2023/09/06 08:07:41;;;;;;;;;;;;;;;;;;2210831;59;3310;-22
2023/09/06 08:10:13;;;;;;;;;;;;;;;;;;2211317;58;1721;-22
2023/09/06 08:12:43;;;;;;;;;;;;;;;;;;2211505;59;1801;-23
2023/09/06 08:15:14;;;;;;;;;;;;;;;;;;2211215;66;2007;-23
2023/09/06 08:17:47;;;;;;;;;;;;;;;;;;2210620;59;2049;-22
2023/09/06 08:20:18;;;;;;;;;;;;;;;;;;2210620;59;1994;-22
2023/09/06 08:22:49;;;;;;;;;;;;;;;;;;2212121;59;2198;-22
2023/09/06 08:25:19;;;;;;;;;;;;;;;;;;2210797;59;1974;-22
2023/09/06 08:27:51;;;;;;;;;;;;;;;;;;2212720;58;1869;-22
2023/09/06 08:30:21;;;;;;;;;;;;;;;;;;2210663;58;1842;-23
2023/09/06 08:32:52;;;;;;;;;;;;;;;;;;2212241;59;1871;-21
2023/09/06 08:35:23;;;;;;;;;;;;;;;;;;2210932;59;2248;-22
2023/09/06 08:37:54;;;;;;;;;;;;;;;;;;2211452;66;2230;-20
2023/09/06 08:40:24;;;;;;;;;;;;;;;;;;2212019;66;1945;-20
2023/09/06 08:42:55;;;;;;;;;;;;;;;;;;2211852;66;1754;-22
2023/09/06 08:45:26;;;;;;;;;;;;;;;;;;2218046;58;1866;-21
2023/09/06 08:47:56;;;;;;;;;;;;;;;;;;2211164;59;1982;-21
2023/09/06 08:50:28;;;;;;;;;;;;;;;;;;2211115;66;1808;-21
2023/09/06 08:52:59;;;;;;;;;;;;;;;;;;2214812;58;1858;-20
2023/09/06 08:55:30;;;;;;;;;;;;;;;;;;2215511;58;1951;-21
2023/09/06 08:58:03;;;;;;;;;;;;;;;;;;2211098;58;1868;-23
2023/09/06 09:00:34;;;;;;;;;;;;;;;;;;2210295;59;1931;-21
2023/09/06 09:03:04;;;;;;;;;;;;;;;;;;2216946;59;1644;-21
2023/09/06 09:05:36;;;;;;;;;;;;;;;;;;2211059;58;2944;-21
2023/09/06 09:08:09;;;;;;;;;;;;;;;;;;2210723;59;3360;-21
2023/09/06 09:10:40;;;;;;;;;;;;;;;;;;2211118;59;1952;-21
2023/09/06 09:13:12;;;;;;;;;;;;;;;;;;2217997;58;1952;-21
2023/09/06 09:15:42;;;;;;;;;;;;;;;;;;2214086;58;1895;-21
2023/09/06 09:18:12;;;;;;;;;;;;;;;;;;2213962;58;1851;-21
2023/09/06 09:20:43;;;;;;;;;;;;;;;;;;2212172;66;1934;-22
2023/09/06 09:23:14;;;;;;;;;;;;;;;;;;2215771;59;1856;-21
2023/09/06 09:25:49;;;;;;;;;;;;;;;;;;2215246;58;1890;-21
2023/09/06 09:28:20;;;;;;;;;;;;;;;;;;2212130;59;2229;-21
2023/09/06 09:30:50;;;;;;;;;;;;;;;;;;2217652;58;1956;-21
2023/09/06 09:33:26;;;;;;;;;;;;;;;;;;2218085;58;1951;-22
2023/09/06 09:35:56;;;;;;;;;;;;;;;;;;2211713;59;2194;-21
2023/09/06 09:38:27;;;;;;;;;;;;;;;;;;2215238;58;1724;-22
2023/09/06 09:41:08;;;;;;;;;;;;;;;;;;2215867;59;2000;-21
2023/09/06 09:43:39;;;;;;;;;;;;;;;;;;2210890;53;4115;-21
2023/09/06 09:46:12;;;;;;;;;;;;;;;;;;2210690;59;1841;-21
2023/09/06 09:48:42;;;;;;;;;;;;;;;;;;2211121;66;1982;-21
2023/09/06 09:51:16;;;;;;;;;;;;;;;;;;2211097;59;1899;-21
2023/09/06 09:53:46;;;;;;;;;;;;;;;;;;2210040;66;1988;-21
2023/09/06 09:56:19;;;;;;;;;;;;;;;;;;2205180;59;1831;-21
2023/09/06 09:58:51;;;;;;;;;;;;;;;;;;2204307;59;1999;-20
2023/09/06 10:01:22;;;;;;;;;;;;;;;;;;2204774;59;2157;-21
2023/09/06 10:03:55;;;;;;;;;;;;;;;;;;2207861;67;1863;-21
2023/09/06 10:06:31;;;;;;;;;;;;;;;;;;2204981;59;2738;-22
2023/09/06 10:09:07;;;;;;;;;;;;;;;;;;2205356;59;3443;-22
2023/09/06 10:11:40;;;;;;;;;;;;;;;;;;2208984;59;1897;-21
2023/09/06 10:14:12;;;;;;;;;;;;;;;;;;2205398;66;1922;-21
2023/09/06 10:16:42;;;;;;;;;;;;;;;;;;2207394;59;1817;-21
2023/09/06 10:19:13;;;;;;;;;;;;;;;;;;2208802;59;1999;-21
2023/09/06 10:21:44;;;;;;;;;;;;;;;;;;2207687;59;1977;-21
2023/09/06 10:24:16;;;;;;;;;;;;;;;;;;2209518;66;1850;-21
2023/09/06 10:26:47;;;;;;;;;;;;;;;;;;2204527;59;1861;-21
2023/09/06 10:29:19;;;;;;;;;;;;;;;;;;2206239;59;2087;-21
2023/09/06 10:31:53;;;;;;;;;;;;;;;;;;2207297;59;1957;-21
2023/09/06 10:34:24;;;;;;;;;;;;;;;;;;2206520;59;1815;-21
2023/09/06 10:36:57;;;;;;;;;;;;;;;;;;2204730;66;1997;-21
2023/09/06 10:39:28;;;;;;;;;;;;;;;;;;2205817;62;2079;-21
2023/09/06 10:42:11;;;;;;;;;;;;;;;;;;2207469;59;1950;-21
2023/09/06 10:44:54;;;;;;;;;;;;;;;;;;2204485;59;1844;-21
2023/09/06 10:47:35;;;;;;;;;;;;;;;;;;2208883;59;1889;-22
2023/09/06 10:50:06;;;;;;;;;;;;;;;;;;2204116;59;2004;-22
2023/09/06 10:52:48;;;;;;;;;;;;;;;;;;2206937;59;1832;-22
2023/09/06 10:55:21;;;;;;;;;;;;;;;;;;2205753;59;1831;-22
2023/09/06 10:58:02;;;;;;;;;;;;;;;;;;2204656;66;1828;-22
2023/09/06 11:00:36;;;;;;;;;;;;;;;;;;2206295;59;2101;-22
2023/09/06 11:03:06;;;;;;;;;;;;;;;;;;2204403;59;2245;-22
2023/09/06 11:05:39;;;;;;;;;;;;;;;;;;2204143;66;1931;-21
2023/09/06 11:08:21;;;;;;;;;;;;;;;;;;2204074;59;2984;-21
2023/09/06 11:10:57;;;;;;;;;;;;;;;;;;2206263;59;3251;-21
2023/09/06 11:13:33;;;;;;;;;;;;;;;;;;2207714;59;1778;-21
2023/09/06 11:16:04;;;;;;;;;;;;;;;;;;2205199;59;1857;-21
2023/09/06 11:18:42;;;;;;;;;;;;;;;;;;2204991;59;1797;-21
2023/09/06 11:21:17;;;;;;;;;;;;;;;;;;2205583;59;1962;-21
2023/09/06 11:23:48;;;;;;;;;;;;;;;;;;2205093;66;1991;-21
2023/09/06 11:26:19;;;;;;;;;;;;;;;;;;2205717;59;1954;-21
2023/09/06 11:28:59;;;;;;;;;;;;;;;;;;2204797;59;1972;-21
2023/09/06 11:31:33;;;;;;;;;;;;;;;;;;2205048;59;2369;-21
2023/09/06 11:34:05;;;;;;;;;;;;;;;;;;2205841;59;2031;-21
2023/09/06 11:36:36;;;;;;;;;;;;;;;;;;2206368;59;1769;-21
2023/09/06 11:39:15;;;;;;;;;;;;;;;;;;2207838;66;2047;-21
2023/09/06 11:41:47;;;;;;;;;;;;;;;;;;2208548;59;1873;-21
2023/09/06 11:44:19;;;;;;;;;;;;;;;;;;2208668;59;1716;-21
2023/09/06 11:46:53;;;;;;;;;;;;;;;;;;2205839;66;1908;-21
2023/09/06 11:49:25;;;;;;;;;;;;;;;;;;2207413;59;1915;-21
2023/09/06 11:51:57;;;;;;;;;;;;;;;;;;2210961;59;1835;-21
2023/09/06 11:54:31;;;;;;;;;;;;;;;;;;2211684;59;1955;-23
2023/09/06 11:57:04;;;;;;;;;;;;;;;;;;2211493;59;1876;-21
2023/09/06 11:59:35;;;;;;;;;;;;;;;;;;2211580;66;1930;-20
2023/09/06 12:02:06;;;;;;;;;;;;;;;;;;2206248;59;1900;-20
2023/09/06 12:04:36;;;;;;;;;;;;;;;;;;2205867;66;1944;-20
2023/09/06 12:07:08;;;;;;;;;;;;;;;;;;2205298;66;1833;-20
2023/09/06 12:09:38;;;;;;;;;;;;;;;;;;2204800;66;3149;-21
2023/09/06 12:12:09;;;;;;;;;;;;;;;;;;2204132;59;3109;-21
2023/09/06 12:14:42;;;;;;;;;;;;;;;;;;2206072;59;1956;-21
2023/09/06 12:17:12;;;;;;;;;;;;;;;;;;2205160;59;2011;-21
2023/09/06 12:19:44;;;;;;;;;;;;;;;;;;2210734;59;2004;-21
2023/09/06 12:22:17;;;;;;;;;;;;;;;;;;2204792;66;1835;-20
2023/09/06 12:24:48;;;;;;;;;;;;;;;;;;2204916;66;1920;-21
2023/09/06 12:27:20;;;;;;;;;;;;;;;;;;2208015;59;2017;-21
2023/09/06 12:29:51;;;;;;;;;;;;;;;;;;2208399;59;2401;-21
2023/09/06 12:32:23;;;;;;;;;;;;;;;;;;2205813;59;2016;-21
2023/09/06 12:34:53;;;;;;;;;;;;;;;;;;2205021;59;2028;-21
2023/09/06 12:37:24;;;;;;;;;;;;;;;;;;2204917;59;2128;-21
2023/09/06 12:39:55;;;;;;;;;;;;;;;;;;2206938;59;1964;-21
2023/09/06 12:42:25;;;;;;;;;;;;;;;;;;2205732;59;1773;-21
2023/09/06 12:44:55;;;;;;;;;;;;;;;;;;2203150;59;1863;-21
2023/09/06 12:47:26;;;;;;;;;;;;;;;;;;2207850;67;2028;-21
2023/09/06 12:49:59;;;;;;;;;;;;;;;;;;2205594;59;2129;-21
2023/09/06 12:52:30;;;;;;;;;;;;;;;;;;2204591;59;1929;-21
2023/09/06 12:55:03;;;;;;;;;;;;;;;;;;2207323;59;1868;-21
2023/09/06 12:57:34;;;;;;;;;;;;;;;;;;2206523;59;2072;-21
2023/09/06 13:00:05;;;;;;;;;;;;;;;;;;2205025;59;1939;-20
2023/09/06 13:02:36;;;;;;;;;;;;;;;;;;2204033;59;1783;-21
2023/09/06 13:05:10;;;;;;;;;;;;;;;;;;2204589;66;1982;-21
2023/09/06 13:07:40;;;;;;;;;;;;;;;;;;2203459;59;1818;-22
2023/09/06 13:10:10;;;;;;;;;;;;;;;;;;2204258;59;3228;-22
2023/09/06 13:12:42;;;;;;;;;;;;;;;;;;2203596;59;3244;-23
2023/09/06 13:15:12;;;;;;;;;;;;;;;;;;2204983;59;1846;-21
2023/09/06 13:17:43;;;;;;;;;;;;;;;;;;2204162;59;1989;-21
2023/09/06 13:20:13;;;;;;;;;;;;;;;;;;2210562;66;1932;-20
2023/09/06 13:22:43;;;;;;;;;;;;;;;;;;2204588;59;1876;-21
2023/09/06 13:25:14;;;;;;;;;;;;;;;;;;2205049;66;1982;-21
2023/09/06 13:27:44;;;;;;;;;;;;;;;;;;2204473;59;2136;-21
2023/09/06 13:30:16;;;;;;;;;;;;;;;;;;2205943;59;1760;-20
2023/09/06 13:32:46;;;;;;;;;;;;;;;;;;2204717;59;1925;-21
2023/09/06 13:35:16;;;;;;;;;;;;;;;;;;2209816;59;1947;-21
2023/09/06 13:37:47;;;;;;;;;;;;;;;;;;2209216;59;1910;-22
2023/09/06 13:40:18;;;;;;;;;;;;;;;;;;2204851;66;1961;-21
2023/09/06 13:42:48;;;;;;;;;;;;;;;;;;2206522;59;2602;-21
2023/09/06 13:45:18;;;;;;;;;;;;;;;;;;2207864;59;2119;-22
2023/09/06 13:47:49;;;;;;;;;;;;;;;;;;2209136;59;1824;-22
2023/09/06 13:50:20;;;;;;;;;;;;;;;;;;2207253;59;1908;-22
2023/09/06 13:52:51;;;;;;;;;;;;;;;;;;2204689;59;1856;-21
2023/09/06 13:55:21;;;;;;;;;;;;;;;;;;2204537;59;2052;-21
2023/09/06 13:57:52;;;;;;;;;;;;;;;;;;2204006;66;2003;-21
2023/09/06 14:00:23;;;;;;;;;;;;;;;;;;2204642;66;2102;-21
2023/09/06 14:02:54;;;;;;;;;;;;;;;;;;2203918;62;1760;-21
2023/09/06 14:05:24;;;;;;;;;;;;;;;;;;2205479;66;1810;-21
2023/09/06 14:07:54;;;;;;;;;;;;;;;;;;2204498;59;2040;-21
2023/09/06 14:10:25;;;;;;;;;;;;;;;;;;2203745;59;2703;-21
2023/09/06 14:12:55;;;;;;;;;;;;;;;;;;2205505;59;3031;-21
2023/09/06 14:15:26;;;;;;;;;;;;;;;;;;2205271;59;1843;-21
2023/09/06 14:17:58;;;;;;;;;;;;;;;;;;2206423;59;1875;-21
2023/09/06 14:20:31;;;;;;;;;;;;;;;;;;2209060;60;1937;-21
2023/09/06 14:23:02;;;;;;;;;;;;;;;;;;2204740;59;1816;-20
2023/09/06 14:25:32;;;;;;;;;;;;;;;;;;2204484;59;1884;-20
2023/09/06 14:28:03;;;;;;;;;;;;;;;;;;2204395;59;2026;-21
2023/09/06 14:30:37;;;;;;;;;;;;;;;;;;2205182;59;1708;-21
2023/09/06 14:33:08;;;;;;;;;;;;;;;;;;2204967;66;1761;-21
2023/09/06 14:35:38;;;;;;;;;;;;;;;;;;2205178;59;1799;-20
2023/09/06 14:38:09;;;;;;;;;;;;;;;;;;2203632;66;1842;-20
2023/09/06 14:40:42;;;;;;;;;;;;;;;;;;2203358;59;1989;-20
2023/09/06 14:43:13;;;;;;;;;;;;;;;;;;2204297;59;1767;-20
2023/09/06 14:45:44;;;;;;;;;;;;;;;;;;2204495;59;2091;-20
2023/09/06 14:48:14;;;;;;;;;;;;;;;;;;2205197;59;1747;-20
2023/09/06 14:50:45;;;;;;;;;;;;;;;;;;2204210;59;1953;-20
2023/09/06 14:53:15;;;;;;;;;;;;;;;;;;2204966;59;1978;-20
2023/09/06 14:55:45;;;;;;;;;;;;;;;;;;2203084;66;1815;-21
2023/09/06 14:58:16;;;;;;;;;;;;;;;;;;2205044;59;1801;-21
2023/09/06 15:00:47;;;;;;;;;;;;;;;;;;2203296;59;1968;-21
2023/09/06 15:03:17;;;;;;;;;;;;;;;;;;2205106;59;1773;-21
2023/09/06 15:05:47;;;;;;;;;;;;;;;;;;2203288;59;1814;-21
2023/09/06 15:08:18;;;;;;;;;;;;;;;;;;2204731;59;1952;-21
2023/09/06 15:10:49;;;;;;;;;;;;;;;;;;2203499;59;1833;-20
2023/09/06 15:13:19;;;;;;;;;;;;;;;;;;2203534;59;3045;-21
2023/09/06 15:15:51;;;;;;;;;;;;;;;;;;2203229;66;1989;-21
2023/09/06 15:18:23;;;;;;;;;;;;;;;;;;2204638;59;1965;-20
2023/09/06 15:20:54;;;;;;;;;;;;;;;;;;2203937;59;2025;-21
2023/09/06 15:23:25;;;;;;;;;;;;;;;;;;2208394;59;1947;-21
2023/09/06 15:25:56;;;;;;;;;;;;;;;;;;2203834;59;1899;-21
2023/09/06 15:28:26;;;;;;;;;;;;;;;;;;2204793;59;1976;-21
2023/09/06 15:30:57;;;;;;;;;;;;;;;;;;2206366;59;1969;-21
2023/09/06 15:33:28;;;;;;;;;;;;;;;;;;2205360;60;1730;-21
2023/09/06 15:36:06;;;;;;;;;;;;;;;;;;2202454;59;1855;-21
2023/09/06 15:38:38;;;;;;;;;;;;;;;;;;2205016;67;1962;-21
2023/09/06 15:41:13;;;;;;;;;;;;;;;;;;2203526;59;2055;-21
2023/09/06 15:43:44;;;;;;;;;;;;;;;;;;2204960;59;1811;-21
2023/09/06 15:46:15;;;;;;;;;;;;;;;;;;2206787;60;1942;-21
2023/09/06 15:48:46;;;;;;;;;;;;;;;;;;2203117;59;1838;-21
2023/09/06 15:51:17;;;;;;;;;;;;;;;;;;2205108;59;1897;-21
2023/09/06 15:53:47;;;;;;;;;;;;;;;;;;2203882;59;1845;-21
2023/09/06 15:56:19;;;;;;;;;;;;;;;;;;2203229;59;1987;-21
2023/09/06 15:58:49;;;;;;;;;;;;;;;;;;2205423;66;1828;-21
2023/09/06 16:01:20;;;;;;;;;;;;;;;;;;2204503;59;2309;-20
2023/09/06 16:03:50;;;;;;;;;;;;;;;;;;2201867;59;1825;-21
2023/09/06 16:06:22;;;;;;;;;;;;;;;;;;2205939;59;1837;-21
2023/09/06 16:08:53;;;;;;;;;;;;;;;;;;2205458;59;1803;-21
2023/09/06 16:11:23;;;;;;;;;;;;;;;;;;2204661;59;1961;-20
2023/09/06 16:13:54;;;;;;;;;;;;;;;;;;2203011;59;3606;-21
2023/09/06 16:16:24;;;;;;;;;;;;;;;;;;2205903;59;2552;-21
2023/09/06 16:18:54;;;;;;;;;;;;;;;;;;2203491;59;2121;-23
2023/09/06 16:21:25;;;;;;;;;;;;;;;;;;2208710;59;1987;-21
2023/09/06 16:24:00;;;;;;;;;;;;;;;;;;2204165;59;1883;-20
2023/09/06 16:26:31;;;;;;;;;;;;;;;;;;2205374;66;2133;-22
2023/09/06 16:29:05;;;;;;;;;;;;;;;;;;2204457;59;1991;-20
2023/09/06 16:31:38;;;;;;;;;;;;;;;;;;2207394;59;1846;-20
2023/09/06 16:34:09;;;;;;;;;;;;;;;;;;2203736;59;2009;-21
2023/09/06 16:36:40;;;;;;;;;;;;;;;;;;2208099;67;1769;-20
2023/09/06 16:39:10;;;;;;;;;;;;;;;;;;2206343;59;2021;-20
2023/09/06 16:41:42;;;;;;;;;;;;;;;;;;2204825;66;2051;-21
2023/09/06 16:44:12;;;;;;;;;;;;;;;;;;2204811;59;1770;-21
2023/09/06 16:46:43;;;;;;;;;;;;;;;;;;2203438;66;1862;-22
2023/09/06 16:49:13;;;;;;;;;;;;;;;;;;2204569;59;1981;-21
2023/09/06 16:51:44;;;;;;;;;;;;;;;;;;2203875;59;1972;-21
2023/09/06 16:54:15;;;;;;;;;;;;;;;;;;2204614;59;1782;-21
2023/09/06 16:56:46;;;;;;;;;;;;;;;;;;2204253;60;2648;-21
2023/09/06 16:59:17;;;;;;;;;;;;;;;;;;2204629;59;1834;-21
2023/09/06 17:01:47;;;;;;;;;;;;;;;;;;2204611;59;2008;-21
2023/09/06 17:04:20;;;;;;;;;;;;;;;;;;2203538;59;1755;-22
2023/09/06 17:06:50;;;;;;;;;;;;;;;;;;2207451;59;1698;-23
2023/09/06 17:09:20;;;;;;;;;;;;;;;;;;2204504;59;1816;-23
2023/09/06 17:11:51;;;;;;;;;;;;;;;;;;2204608;59;1781;-23
2023/09/06 17:14:21;;;;;;;;;;;;;;;;;;2203739;59;2907;-23
2023/09/06 17:16:52;;;;;;;;;;;;;;;;;;2202538;59;3751;-20
2023/09/06 17:19:22;;;;;;;;;;;;;;;;;;2204908;59;1943;-22
2023/09/06 17:21:53;;;;;;;;;;;;;;;;;;2204421;67;1981;-23
2023/09/06 17:24:24;;;;;;;;;;;;;;;;;;2204401;59;1896;-23
2023/09/06 17:26:55;;;;;;;;;;;;;;;;;;2203915;59;2143;-22
2023/09/06 17:29:26;;;;;;;;;;;;;;;;;;2205043;59;1866;-23
2023/09/06 17:31:57;;;;;;;;;;;;;;;;;;2203135;66;2016;-22